Harpster, Ohio
Current Conditions -  °F | °C
As of 7:53 PM on Sunday 21 Dec 2014 (Local Time) from KMNN Reporting Station
Clear Clear  
Wind Chill: 20°   Ceiling: Unl
Heat Index: 28°   Visibility: 7mi
Dew Point: 21°   Wind: 8mph
Humidity: 75%   Direction: 120°ESE
Pressure: 30.19"   Gusts: NA
Location:  40.74°N, 83.25°W
Report Text: KMNN 220053Z AUTO 12007KT 7SM CLR M02/M06 A3019 RMK AO2 SLP238 T10221061 TSNO
Loading
Personal Weather Stations






























Interactive Weather Map New forecast layout! Learn more

10-Day Weather Forecast

Advertisements
Track Severe Weather on mobile